sensor_id;sensor_type;location;lat;lon;timestamp;P1;durP1;ratioP1;P2;durP2;ratioP2
52126;SDS011;38120;53.176;6.614;2023-09-08T00:01:28;14.05;;;8.30;;
52126;SDS011;38120;53.176;6.614;2023-09-08T00:03:53;14.27;;;8.25;;
52126;SDS011;38120;53.176;6.614;2023-09-08T00:06:19;11.07;;;7.88;;
52126;SDS011;38120;53.176;6.614;2023-09-08T00:08:44;9.50;;;7.40;;
52126;SDS011;38120;53.176;6.614;2023-09-08T00:11:10;13.90;;;8.73;;
52126;SDS011;38120;53.176;6.614;2023-09-08T00:16:02;12.77;;;8.68;;
52126;SDS011;38120;53.176;6.614;2023-09-08T00:18:28;12.57;;;7.35;;
52126;SDS011;38120;53.176;6.614;2023-09-08T00:20:56;17.63;;;8.77;;
52126;SDS011;38120;53.176;6.614;2023-09-08T00:23:22;12.00;;;8.57;;
52126;SDS011;38120;53.176;6.614;2023-09-08T00:25:48;17.40;;;8.52;;
52126;SDS011;38120;53.176;6.614;2023-09-08T00:28:14;14.25;;;8.40;;
52126;SDS011;38120;53.176;6.614;2023-09-08T00:30:40;9.85;;;8.02;;
52126;SDS011;38120;53.176;6.614;2023-09-08T00:33:06;12.07;;;9.02;;
52126;SDS011;38120;53.176;6.614;2023-09-08T00:35:34;13.25;;;9.00;;
52126;SDS011;38120;53.176;6.614;2023-09-08T00:38:03;14.50;;;8.85;;
52126;SDS011;38120;53.176;6.614;2023-09-08T00:40:29;13.35;;;8.55;;
52126;SDS011;38120;53.176;6.614;2023-09-08T00:42:54;13.65;;;9.23;;
52126;SDS011;38120;53.176;6.614;2023-09-08T00:45:20;15.45;;;9.48;;
52126;SDS011;38120;53.176;6.614;2023-09-08T00:47:46;14.07;;;10.60;;
52126;SDS011;38120;53.176;6.614;2023-09-08T00:50:11;13.02;;;8.23;;
52126;SDS011;38120;53.176;6.614;2023-09-08T00:52:37;12.23;;;8.98;;
52126;SDS011;38120;53.176;6.614;2023-09-08T00:55:04;11.75;;;8.95;;
52126;SDS011;38120;53.176;6.614;2023-09-08T00:57:32;13.30;;;9.05;;
52126;SDS011;38120;53.176;6.614;2023-09-08T00:59:58;10.35;;;8.25;;
52126;SDS011;38120;53.176;6.614;2023-09-08T01:02:24;12.55;;;8.90;;
52126;SDS011;38120;53.176;6.614;2023-09-08T01:04:50;16.27;;;8.55;;
52126;SDS011;38120;53.176;6.614;2023-09-08T01:07:15;11.85;;;8.68;;
52126;SDS011;38120;53.176;6.614;2023-09-08T01:09:42;10.73;;;8.00;;
52126;SDS011;38120;53.176;6.614;2023-09-08T01:12:08;11.57;;;8.68;;
52126;SDS011;38120;53.176;6.614;2023-09-08T01:14:34;16.58;;;8.80;;
52126;SDS011;38120;53.176;6.614;2023-09-08T01:16:59;11.95;;;8.32;;
52126;SDS011;38120;53.176;6.614;2023-09-08T01:19:25;11.30;;;8.52;;
52126;SDS011;38120;53.176;6.614;2023-09-08T01:27:32;11.85;;;8.10;;
52126;SDS011;38120;53.176;6.614;2023-09-08T01:30:01;12.95;;;9.52;;
52126;SDS011;38120;53.176;6.614;2023-09-08T01:32:28;11.75;;;9.10;;
52126;SDS011;38120;53.176;6.614;2023-09-08T01:34:57;9.93;;;7.97;;
52126;SDS011;38120;53.176;6.614;2023-09-08T01:37:24;12.18;;;9.25;;
52126;SDS011;38120;53.176;6.614;2023-09-08T01:39:51;12.82;;;8.73;;
52126;SDS011;38120;53.176;6.614;2023-09-08T01:42:16;13.15;;;9.52;;
52126;SDS011;38120;53.176;6.614;2023-09-08T01:44:42;12.38;;;8.57;;
52126;SDS011;38120;53.176;6.614;2023-09-08T01:47:08;13.82;;;8.75;;
52126;SDS011;38120;53.176;6.614;2023-09-08T01:49:36;12.05;;;7.80;;
52126;SDS011;38120;53.176;6.614;2023-09-08T01:54:28;12.30;;;8.30;;
52126;SDS011;38120;53.176;6.614;2023-09-08T01:56:54;12.73;;;8.48;;
52126;SDS011;38120;53.176;6.614;2023-09-08T01:59:20;13.40;;;8.63;;
52126;SDS011;38120;53.176;6.614;2023-09-08T02:01:45;12.02;;;8.20;;
52126;SDS011;38120;53.176;6.614;2023-09-08T02:04:11;18.42;;;9.20;;
52126;SDS011;38120;53.176;6.614;2023-09-08T02:06:37;12.20;;;8.48;;
52126;SDS011;38120;53.176;6.614;2023-09-08T02:09:03;11.25;;;8.30;;
52126;SDS011;38120;53.176;6.614;2023-09-08T02:11:29;10.93;;;7.80;;
52126;SDS011;38120;53.176;6.614;2023-09-08T02:13:54;11.27;;;8.13;;
52126;SDS011;38120;53.176;6.614;2023-09-08T02:16:20;13.25;;;8.50;;
52126;SDS011;38120;53.176;6.614;2023-09-08T02:18:46;14.07;;;9.02;;
52126;SDS011;38120;53.176;6.614;2023-09-08T02:21:11;13.70;;;8.90;;
52126;SDS011;38120;53.176;6.614;2023-09-08T02:23:37;11.45;;;8.25;;
52126;SDS011;38120;53.176;6.614;2023-09-08T02:26:03;14.57;;;8.65;;
52126;SDS011;38120;53.176;6.614;2023-09-08T02:28:29;13.68;;;8.63;;
52126;SDS011;38120;53.176;6.614;2023-09-08T02:30:54;12.27;;;8.50;;
52126;SDS011;38120;53.176;6.614;2023-09-08T02:33:21;15.95;;;9.77;;
52126;SDS011;38120;53.176;6.614;2023-09-08T02:36:01;16.83;;;8.57;;
52126;SDS011;38120;53.176;6.614;2023-09-08T02:38:31;15.18;;;9.40;;
52126;SDS011;38120;53.176;6.614;2023-09-08T02:40:57;13.55;;;9.52;;
52126;SDS011;38120;53.176;6.614;2023-09-08T02:43:22;11.70;;;8.63;;
52126;SDS011;38120;53.176;6.614;2023-09-08T02:45:49;13.55;;;9.52;;
52126;SDS011;38120;53.176;6.614;2023-09-08T02:48:14;17.27;;;10.57;;
52126;SDS011;38120;53.176;6.614;2023-09-08T02:50:41;12.63;;;9.95;;
52126;SDS011;38120;53.176;6.614;2023-09-08T02:53:08;14.90;;;10.30;;
52126;SDS011;38120;53.176;6.614;2023-09-08T02:55:34;14.07;;;10.05;;
52126;SDS011;38120;53.176;6.614;2023-09-08T02:57:59;12.63;;;10.15;;
52126;SDS011;38120;53.176;6.614;2023-09-08T03:00:25;13.10;;;10.32;;
52126;SDS011;38120;53.176;6.614;2023-09-08T03:02:51;14.23;;;9.05;;
52126;SDS011;38120;53.176;6.614;2023-09-08T03:05:17;15.90;;;10.27;;
52126;SDS011;38120;53.176;6.614;2023-09-08T03:07:42;13.25;;;9.15;;
52126;SDS011;38120;53.176;6.614;2023-09-08T03:10:08;17.58;;;10.60;;
52126;SDS011;38120;53.176;6.614;2023-09-08T03:15:01;13.45;;;8.57;;
52126;SDS011;38120;53.176;6.614;2023-09-08T03:17:29;12.00;;;9.82;;
52126;SDS011;38120;53.176;6.614;2023-09-08T03:19:54;12.98;;;9.35;;
52126;SDS011;38120;53.176;6.614;2023-09-08T03:22:20;16.70;;;10.10;;
52126;SDS011;38120;53.176;6.614;2023-09-08T03:24:46;14.60;;;9.48;;
52126;SDS011;38120;53.176;6.614;2023-09-08T03:27:11;16.55;;;10.25;;
52126;SDS011;38120;53.176;6.614;2023-09-08T03:29:37;11.05;;;8.80;;
52126;SDS011;38120;53.176;6.614;2023-09-08T03:32:03;12.57;;;9.30;;
52126;SDS011;38120;53.176;6.614;2023-09-08T03:34:28;14.25;;;9.32;;
52126;SDS011;38120;53.176;6.614;2023-09-08T03:36:54;13.85;;;9.90;;
52126;SDS011;38120;53.176;6.614;2023-09-08T03:39:20;14.60;;;10.23;;
52126;SDS011;38120;53.176;6.614;2023-09-08T03:41:45;13.63;;;10.48;;
52126;SDS011;38120;53.176;6.614;2023-09-08T03:44:11;12.10;;;9.25;;
52126;SDS011;38120;53.176;6.614;2023-09-08T03:46:37;15.52;;;8.95;;
52126;SDS011;38120;53.176;6.614;2023-09-08T03:49:03;12.07;;;8.88;;
52126;SDS011;38120;53.176;6.614;2023-09-08T03:51:28;13.85;;;9.30;;
52126;SDS011;38120;53.176;6.614;2023-09-08T03:53:54;12.35;;;9.60;;
52126;SDS011;38120;53.176;6.614;2023-09-08T03:56:20;11.50;;;8.88;;
52126;SDS011;38120;53.176;6.614;2023-09-08T03:58:46;16.13;;;9.27;;
52126;SDS011;38120;53.176;6.614;2023-09-08T04:01:12;14.38;;;9.55;;
52126;SDS011;38120;53.176;6.614;2023-09-08T04:03:38;13.98;;;9.43;;
52126;SDS011;38120;53.176;6.614;2023-09-08T04:06:04;12.93;;;9.60;;
52126;SDS011;38120;53.176;6.614;2023-09-08T04:08:29;13.80;;;9.90;;
52126;SDS011;38120;53.176;6.614;2023-09-08T04:10:55;13.88;;;9.55;;
52126;SDS011;38120;53.176;6.614;2023-09-08T04:13:20;12.43;;;8.93;;
52126;SDS011;38120;53.176;6.614;2023-09-08T04:15:46;12.25;;;9.57;;
52126;SDS011;38120;53.176;6.614;2023-09-08T04:18:12;13.75;;;9.63;;
52126;SDS011;38120;53.176;6.614;2023-09-08T04:20:38;16.30;;;10.40;;
52126;SDS011;38120;53.176;6.614;2023-09-08T04:25:29;15.25;;;10.30;;
52126;SDS011;38120;53.176;6.614;2023-09-08T04:27:55;13.73;;;10.25;;
52126;SDS011;38120;53.176;6.614;2023-09-08T04:30:21;13.95;;;10.75;;
52126;SDS011;38120;53.176;6.614;2023-09-08T04:32:46;14.75;;;10.23;;
52126;SDS011;38120;53.176;6.614;2023-09-08T04:35:12;12.02;;;9.30;;
52126;SDS011;38120;53.176;6.614;2023-09-08T04:37:38;15.32;;;10.40;;
52126;SDS011;38120;53.176;6.614;2023-09-08T04:40:04;13.90;;;10.43;;
52126;SDS011;38120;53.176;6.614;2023-09-08T04:42:32;13.63;;;10.45;;
52126;SDS011;38120;53.176;6.614;2023-09-08T04:44:58;14.48;;;10.85;;
52126;SDS011;38120;53.176;6.614;2023-09-08T04:47:24;15.68;;;10.43;;
52126;SDS011;38120;53.176;6.614;2023-09-08T04:49:49;14.90;;;10.55;;
52126;SDS011;38120;53.176;6.614;2023-09-08T04:52:15;16.95;;;9.68;;
52126;SDS011;38120;53.176;6.614;2023-09-08T04:54:41;19.00;;;11.43;;
52126;SDS011;38120;53.176;6.614;2023-09-08T04:57:06;15.77;;;10.40;;
52126;SDS011;38120;53.176;6.614;2023-09-08T04:59:32;18.08;;;11.02;;
52126;SDS011;38120;53.176;6.614;2023-09-08T05:01:58;13.57;;;10.10;;
52126;SDS011;38120;53.176;6.614;2023-09-08T05:04:24;15.25;;;10.05;;
52126;SDS011;38120;53.176;6.614;2023-09-08T05:06:50;15.45;;;10.63;;
52126;SDS011;38120;53.176;6.614;2023-09-08T05:09:15;15.48;;;11.45;;
52126;SDS011;38120;53.176;6.614;2023-09-08T05:11:41;17.63;;;11.25;;
52126;SDS011;38120;53.176;6.614;2023-09-08T05:14:07;13.70;;;10.95;;
52126;SDS011;38120;53.176;6.614;2023-09-08T05:16:32;18.92;;;11.93;;
52126;SDS011;38120;53.176;6.614;2023-09-08T05:19:10;14.13;;;10.00;;
52126;SDS011;38120;53.176;6.614;2023-09-08T05:21:38;15.35;;;12.25;;
52126;SDS011;38120;53.176;6.614;2023-09-08T05:24:04;16.45;;;10.98;;
52126;SDS011;38120;53.176;6.614;2023-09-08T05:26:31;18.17;;;11.80;;
52126;SDS011;38120;53.176;6.614;2023-09-08T05:28:57;14.52;;;11.43;;
52126;SDS011;38120;53.176;6.614;2023-09-08T05:31:22;16.80;;;11.25;;
52126;SDS011;38120;53.176;6.614;2023-09-08T05:33:48;16.17;;;11.20;;
52126;SDS011;38120;53.176;6.614;2023-09-08T05:36:14;17.90;;;11.85;;
52126;SDS011;38120;53.176;6.614;2023-09-08T05:38:40;18.20;;;10.93;;
52126;SDS011;38120;53.176;6.614;2023-09-08T05:41:06;17.27;;;12.07;;
52126;SDS011;38120;53.176;6.614;2023-09-08T05:43:31;13.93;;;11.23;;
52126;SDS011;38120;53.176;6.614;2023-09-08T05:45:57;17.33;;;10.48;;
52126;SDS011;38120;53.176;6.614;2023-09-08T05:48:23;16.52;;;10.48;;
52126;SDS011;38120;53.176;6.614;2023-09-08T05:50:49;16.95;;;11.43;;
52126;SDS011;38120;53.176;6.614;2023-09-08T05:53:14;16.65;;;11.73;;
52126;SDS011;38120;53.176;6.614;2023-09-08T05:55:40;16.45;;;12.75;;
52126;SDS011;38120;53.176;6.614;2023-09-08T05:58:06;14.00;;;10.55;;
52126;SDS011;38120;53.176;6.614;2023-09-08T06:00:32;16.05;;;12.25;;
52126;SDS011;38120;53.176;6.614;2023-09-08T06:02:58;16.15;;;11.00;;
52126;SDS011;38120;53.176;6.614;2023-09-08T06:05:24;17.05;;;12.35;;
52126;SDS011;38120;53.176;6.614;2023-09-08T06:07:50;14.68;;;11.55;;
52126;SDS011;38120;53.176;6.614;2023-09-08T06:10:15;16.85;;;12.00;;
52126;SDS011;38120;53.176;6.614;2023-09-08T06:12:41;17.50;;;12.27;;
52126;SDS011;38120;53.176;6.614;2023-09-08T06:15:08;17.20;;;11.27;;
52126;SDS011;38120;53.176;6.614;2023-09-08T06:17:34;18.70;;;11.25;;
52126;SDS011;38120;53.176;6.614;2023-09-08T06:20:00;15.93;;;12.40;;
52126;SDS011;38120;53.176;6.614;2023-09-08T06:22:25;17.60;;;12.23;;
52126;SDS011;38120;53.176;6.614;2023-09-08T06:24:51;20.15;;;11.85;;
52126;SDS011;38120;53.176;6.614;2023-09-08T06:27:17;16.92;;;11.55;;
52126;SDS011;38120;53.176;6.614;2023-09-08T06:29:42;15.88;;;11.95;;
52126;SDS011;38120;53.176;6.614;2023-09-08T06:32:09;18.10;;;10.68;;
52126;SDS011;38120;53.176;6.614;2023-09-08T06:34:35;14.30;;;9.93;;
52126;SDS011;38120;53.176;6.614;2023-09-08T06:37:01;16.92;;;10.88;;
52126;SDS011;38120;53.176;6.614;2023-09-08T06:41:53;17.70;;;11.52;;
52126;SDS011;38120;53.176;6.614;2023-09-08T06:44:20;16.67;;;12.35;;
52126;SDS011;38120;53.176;6.614;2023-09-08T06:46:46;17.75;;;11.18;;
52126;SDS011;38120;53.176;6.614;2023-09-08T06:49:12;13.57;;;11.63;;
52126;SDS011;38120;53.176;6.614;2023-09-08T06:51:37;15.55;;;10.30;;
52126;SDS011;38120;53.176;6.614;2023-09-08T06:54:04;14.85;;;11.65;;
52126;SDS011;38120;53.176;6.614;2023-09-08T06:56:29;21.38;;;12.45;;
52126;SDS011;38120;53.176;6.614;2023-09-08T06:58:56;13.60;;;10.80;;
52126;SDS011;38120;53.176;6.614;2023-09-08T07:01:25;20.15;;;12.68;;
52126;SDS011;38120;53.176;6.614;2023-09-08T07:03:51;17.75;;;11.77;;
52126;SDS011;38120;53.176;6.614;2023-09-08T07:06:17;15.93;;;11.27;;
52126;SDS011;38120;53.176;6.614;2023-09-08T07:08:42;15.32;;;10.38;;
52126;SDS011;38120;53.176;6.614;2023-09-08T07:13:34;14.30;;;10.27;;
52126;SDS011;38120;53.176;6.614;2023-09-08T07:16:00;14.98;;;9.90;;
52126;SDS011;38120;53.176;6.614;2023-09-08T07:18:26;15.38;;;10.95;;
52126;SDS011;38120;53.176;6.614;2023-09-08T07:20:51;15.82;;;11.32;;
52126;SDS011;38120;53.176;6.614;2023-09-08T07:23:17;13.65;;;10.43;;
52126;SDS011;38120;53.176;6.614;2023-09-08T07:25:48;13.63;;;10.02;;
52126;SDS011;38120;53.176;6.614;2023-09-08T07:28:15;14.88;;;10.68;;
52126;SDS011;38120;53.176;6.614;2023-09-08T07:30:41;14.80;;;10.10;;
52126;SDS011;38120;53.176;6.614;2023-09-08T07:33:08;17.85;;;10.07;;
52126;SDS011;38120;53.176;6.614;2023-09-08T07:35:40;18.15;;;9.82;;
52126;SDS011;38120;53.176;6.614;2023-09-08T07:38:06;12.98;;;10.50;;
52126;SDS011;38120;53.176;6.614;2023-09-08T07:42:58;17.70;;;9.65;;
52126;SDS011;38120;53.176;6.614;2023-09-08T07:45:24;14.18;;;9.57;;
52126;SDS011;38120;53.176;6.614;2023-09-08T07:47:50;13.45;;;9.60;;
52126;SDS011;38120;53.176;6.614;2023-09-08T07:50:17;11.82;;;9.82;;
52126;SDS011;38120;53.176;6.614;2023-09-08T07:52:45;13.82;;;8.75;;
52126;SDS011;38120;53.176;6.614;2023-09-08T07:55:11;13.20;;;9.15;;
52126;SDS011;38120;53.176;6.614;2023-09-08T07:57:37;13.63;;;9.25;;
52126;SDS011;38120;53.176;6.614;2023-09-08T08:00:02;13.27;;;8.55;;
52126;SDS011;38120;53.176;6.614;2023-09-08T08:04:56;14.25;;;8.77;;
52126;SDS011;38120;53.176;6.614;2023-09-08T08:07:22;15.32;;;8.10;;
52126;SDS011;38120;53.176;6.614;2023-09-08T08:09:48;11.15;;;8.40;;
52126;SDS011;38120;53.176;6.614;2023-09-08T08:12:13;15.07;;;8.70;;
52126;SDS011;38120;53.176;6.614;2023-09-08T08:14:39;12.68;;;8.10;;
52126;SDS011;38120;53.176;6.614;2023-09-08T08:17:05;16.17;;;9.30;;
52126;SDS011;38120;53.176;6.614;2023-09-08T08:19:30;11.57;;;7.85;;
52126;SDS011;38120;53.176;6.614;2023-09-08T08:21:56;11.23;;;7.60;;
52126;SDS011;38120;53.176;6.614;2023-09-08T08:24:24;9.05;;;7.15;;
52126;SDS011;38120;53.176;6.614;2023-09-08T08:26:50;14.35;;;7.32;;
52126;SDS011;38120;53.176;6.614;2023-09-08T08:29:17;10.15;;;6.90;;
52126;SDS011;38120;53.176;6.614;2023-09-08T08:31:42;9.13;;;6.63;;
52126;SDS011;38120;53.176;6.614;2023-09-08T08:34:08;9.15;;;6.18;;
52126;SDS011;38120;53.176;6.614;2023-09-08T08:36:34;9.27;;;5.90;;
52126;SDS011;38120;53.176;6.614;2023-09-08T08:39:00;11.05;;;6.32;;
52126;SDS011;38120;53.176;6.614;2023-09-08T08:41:26;10.32;;;6.70;;
52126;SDS011;38120;53.176;6.614;2023-09-08T08:43:53;7.30;;;5.38;;
52126;SDS011;38120;53.176;6.614;2023-09-08T08:46:21;8.95;;;5.65;;
52126;SDS011;38120;53.176;6.614;2023-09-08T08:48:48;10.70;;;5.85;;
52126;SDS011;38120;53.176;6.614;2023-09-08T08:51:17;8.27;;;5.25;;
52126;SDS011;38120;53.176;6.614;2023-09-08T08:53:43;10.20;;;5.25;;
52126;SDS011;38120;53.176;6.614;2023-09-08T08:56:09;9.50;;;5.57;;
52126;SDS011;38120;53.176;6.614;2023-09-08T08:58:37;7.32;;;5.63;;
52126;SDS011;38120;53.176;6.614;2023-09-08T09:01:04;7.57;;;5.22;;
52126;SDS011;38120;53.176;6.614;2023-09-08T09:03:31;8.43;;;4.93;;
52126;SDS011;38120;53.176;6.614;2023-09-08T09:05:59;6.88;;;4.80;;
52126;SDS011;38120;53.176;6.614;2023-09-08T09:08:26;10.52;;;5.63;;
52126;SDS011;38120;53.176;6.614;2023-09-08T09:10:53;9.43;;;5.38;;
52126;SDS011;38120;53.176;6.614;2023-09-08T09:13:19;11.55;;;5.57;;
52126;SDS011;38120;53.176;6.614;2023-09-08T09:15:44;6.05;;;4.82;;
52126;SDS011;38120;53.176;6.614;2023-09-08T09:18:11;10.80;;;4.97;;
52126;SDS011;38120;53.176;6.614;2023-09-08T09:20:37;6.88;;;5.10;;
52126;SDS011;38120;53.176;6.614;2023-09-08T09:23:03;10.00;;;5.30;;
52126;SDS011;38120;53.176;6.614;2023-09-08T09:25:29;7.25;;;4.93;;
52126;SDS011;38120;53.176;6.614;2023-09-08T09:27:56;8.85;;;5.03;;
52126;SDS011;38120;53.176;6.614;2023-09-08T09:30:24;8.18;;;4.75;;
52126;SDS011;38120;53.176;6.614;2023-09-08T09:33:01;6.30;;;4.85;;
52126;SDS011;38120;53.176;6.614;2023-09-08T09:38:10;9.00;;;5.47;;
52126;SDS011;38120;53.176;6.614;2023-09-08T09:40:36;6.97;;;4.95;;
52126;SDS011;38120;53.176;6.614;2023-09-08T09:43:04;9.43;;;4.55;;
52126;SDS011;38120;53.176;6.614;2023-09-08T09:45:30;7.78;;;5.05;;
52126;SDS011;38120;53.176;6.614;2023-09-08T09:47:58;7.40;;;4.97;;
52126;SDS011;38120;53.176;6.614;2023-09-08T09:50:39;8.68;;;4.93;;
52126;SDS011;38120;53.176;6.614;2023-09-08T09:53:13;9.13;;;4.95;;
52126;SDS011;38120;53.176;6.614;2023-09-08T09:55:42;18.25;;;6.53;;
52126;SDS011;38120;53.176;6.614;2023-09-08T09:58:09;8.23;;;5.35;;
52126;SDS011;38120;53.176;6.614;2023-09-08T10:00:36;11.90;;;5.35;;
52126;SDS011;38120;53.176;6.614;2023-09-08T10:03:03;9.57;;;4.63;;
52126;SDS011;38120;53.176;6.614;2023-09-08T10:05:29;11.77;;;5.07;;
52126;SDS011;38120;53.176;6.614;2023-09-08T10:10:21;8.07;;;5.22;;
52126;SDS011;38120;53.176;6.614;2023-09-08T10:12:54;8.30;;;5.38;;
52126;SDS011;38120;53.176;6.614;2023-09-08T10:15:22;9.05;;;5.07;;
52126;SDS011;38120;53.176;6.614;2023-09-08T10:17:53;9.43;;;4.65;;
52126;SDS011;38120;53.176;6.614;2023-09-08T10:20:24;17.08;;;7.40;;
52126;SDS011;38120;53.176;6.614;2023-09-08T10:23:07;10.40;;;4.90;;
52126;SDS011;38120;53.176;6.614;2023-09-08T10:25:45;7.65;;;4.80;;
52126;SDS011;38120;53.176;6.614;2023-09-08T10:28:18;6.43;;;4.95;;
52126;SDS011;38120;53.176;6.614;2023-09-08T10:33:11;9.23;;;4.60;;
52126;SDS011;38120;53.176;6.614;2023-09-08T10:35:37;8.20;;;5.43;;
52126;SDS011;38120;53.176;6.614;2023-09-08T10:40:50;12.48;;;4.88;;
52126;SDS011;38120;53.176;6.614;2023-09-08T10:43:17;8.43;;;5.25;;
52126;SDS011;38120;53.176;6.614;2023-09-08T10:45:43;13.18;;;5.18;;
52126;SDS011;38120;53.176;6.614;2023-09-08T10:48:11;10.27;;;5.45;;
52126;SDS011;38120;53.176;6.614;2023-09-08T10:50:41;10.18;;;4.78;;
52126;SDS011;38120;53.176;6.614;2023-09-08T10:53:15;9.88;;;5.70;;
52126;SDS011;38120;53.176;6.614;2023-09-08T10:58:09;7.78;;;5.35;;
52126;SDS011;38120;53.176;6.614;2023-09-08T11:00:42;7.78;;;4.70;;
52126;SDS011;38120;53.176;6.614;2023-09-08T11:03:09;6.60;;;4.38;;
52126;SDS011;38120;53.176;6.614;2023-09-08T11:08:00;10.30;;;4.63;;
52126;SDS011;38120;53.176;6.614;2023-09-08T11:10:26;8.50;;;4.85;;
52126;SDS011;38120;53.176;6.614;2023-09-08T11:12:54;6.63;;;5.03;;
52126;SDS011;38120;53.176;6.614;2023-09-08T11:15:19;5.60;;;4.32;;
52126;SDS011;38120;53.176;6.614;2023-09-08T11:17:46;7.63;;;4.88;;
52126;SDS011;38120;53.176;6.614;2023-09-08T11:20:16;8.65;;;5.20;;
52126;SDS011;38120;53.176;6.614;2023-09-08T11:22:50;9.10;;;4.93;;
52126;SDS011;38120;53.176;6.614;2023-09-08T11:25:16;9.18;;;4.60;;
52126;SDS011;38120;53.176;6.614;2023-09-08T11:27:42;13.48;;;4.78;;
52126;SDS011;38120;53.176;6.614;2023-09-08T11:30:09;8.55;;;4.70;;
52126;SDS011;38120;53.176;6.614;2023-09-08T11:32:37;7.38;;;4.30;;
52126;SDS011;38120;53.176;6.614;2023-09-08T11:35:06;9.25;;;4.38;;
52126;SDS011;38120;53.176;6.614;2023-09-08T11:37:35;7.38;;;4.68;;
52126;SDS011;38120;53.176;6.614;2023-09-08T11:40:06;8.32;;;4.50;;
52126;SDS011;38120;53.176;6.614;2023-09-08T11:42:39;11.73;;;4.97;;
52126;SDS011;38120;53.176;6.614;2023-09-08T11:45:10;9.40;;;4.97;;
52126;SDS011;38120;53.176;6.614;2023-09-08T11:47:39;7.90;;;4.78;;
52126;SDS011;38120;53.176;6.614;2023-09-08T11:50:06;9.65;;;4.80;;
52126;SDS011;38120;53.176;6.614;2023-09-08T11:52:33;7.57;;;4.75;;
52126;SDS011;38120;53.176;6.614;2023-09-08T11:54:58;8.23;;;4.90;;
52126;SDS011;38120;53.176;6.614;2023-09-08T11:57:24;7.80;;;4.75;;
52126;SDS011;38120;53.176;6.614;2023-09-08T11:59:50;7.90;;;4.50;;
52126;SDS011;38120;53.176;6.614;2023-09-08T12:02:17;9.20;;;4.88;;
52126;SDS011;38120;53.176;6.614;2023-09-08T12:04:43;5.72;;;4.13;;
52126;SDS011;38120;53.176;6.614;2023-09-08T12:07:13;9.60;;;4.32;;
52126;SDS011;38120;53.176;6.614;2023-09-08T12:09:44;8.80;;;4.68;;
52126;SDS011;38120;53.176;6.614;2023-09-08T12:12:11;7.20;;;4.40;;
52126;SDS011;38120;53.176;6.614;2023-09-08T12:14:40;10.27;;;4.53;;
52126;SDS011;38120;53.176;6.614;2023-09-08T12:17:07;8.68;;;4.40;;
52126;SDS011;38120;53.176;6.614;2023-09-08T12:19:33;6.50;;;4.30;;
52126;SDS011;38120;53.176;6.614;2023-09-08T12:22:03;11.68;;;4.47;;
52126;SDS011;38120;53.176;6.614;2023-09-08T12:24:45;8.07;;;4.32;;
52126;SDS011;38120;53.176;6.614;2023-09-08T12:27:35;6.47;;;4.22;;
52126;SDS011;38120;53.176;6.614;2023-09-08T12:30:02;6.45;;;4.00;;
52126;SDS011;38120;53.176;6.614;2023-09-08T12:32:30;7.55;;;4.60;;
52126;SDS011;38120;53.176;6.614;2023-09-08T12:34:58;8.95;;;4.80;;
52126;SDS011;38120;53.176;6.614;2023-09-08T12:37:25;8.15;;;4.80;;
52126;SDS011;38120;53.176;6.614;2023-09-08T12:39:57;8.60;;;4.72;;
52126;SDS011;38120;53.176;6.614;2023-09-08T12:42:26;7.00;;;4.85;;
52126;SDS011;38120;53.176;6.614;2023-09-08T12:44:54;6.68;;;4.70;;
52126;SDS011;38120;53.176;6.614;2023-09-08T12:47:20;6.10;;;4.22;;
52126;SDS011;38120;53.176;6.614;2023-09-08T12:49:46;8.90;;;5.60;;
52126;SDS011;38120;53.176;6.614;2023-09-08T12:52:11;6.63;;;4.00;;
52126;SDS011;38120;53.176;6.614;2023-09-08T12:54:37;9.48;;;4.05;;
52126;SDS011;38120;53.176;6.614;2023-09-08T12:57:03;7.22;;;3.95;;
52126;SDS011;38120;53.176;6.614;2023-09-08T12:59:29;6.68;;;3.85;;
52126;SDS011;38120;53.176;6.614;2023-09-08T13:01:55;7.93;;;3.75;;
52126;SDS011;38120;53.176;6.614;2023-09-08T13:04:21;6.47;;;4.43;;
52126;SDS011;38120;53.176;6.614;2023-09-08T13:06:48;9.10;;;4.40;;
52126;SDS011;38120;53.176;6.614;2023-09-08T13:09:14;8.30;;;4.30;;
52126;SDS011;38120;53.176;6.614;2023-09-08T13:11:41;7.32;;;4.90;;
52126;SDS011;38120;53.176;6.614;2023-09-08T13:14:07;6.10;;;4.72;;
52126;SDS011;38120;53.176;6.614;2023-09-08T13:16:33;7.68;;;4.38;;
52126;SDS011;38120;53.176;6.614;2023-09-08T13:18:59;9.13;;;3.95;;
52126;SDS011;38120;53.176;6.614;2023-09-08T13:21:25;10.27;;;4.80;;
52126;SDS011;38120;53.176;6.614;2023-09-08T13:23:50;7.30;;;4.32;;
52126;SDS011;38120;53.176;6.614;2023-09-08T13:26:16;5.22;;;3.78;;
52126;SDS011;38120;53.176;6.614;2023-09-08T13:28:42;9.10;;;4.22;;
52126;SDS011;38120;53.176;6.614;2023-09-08T13:31:08;5.53;;;3.83;;
52126;SDS011;38120;53.176;6.614;2023-09-08T13:33:34;11.23;;;4.55;;
52126;SDS011;38120;53.176;6.614;2023-09-08T13:36:00;7.72;;;4.70;;
52126;SDS011;38120;53.176;6.614;2023-09-08T13:38:26;6.80;;;3.90;;
52126;SDS011;38120;53.176;6.614;2023-09-08T13:40:51;9.07;;;3.55;;
52126;SDS011;38120;53.176;6.614;2023-09-08T13:43:18;8.13;;;3.83;;
52126;SDS011;38120;53.176;6.614;2023-09-08T13:45:44;8.27;;;4.13;;
52126;SDS011;38120;53.176;6.614;2023-09-08T13:48:09;7.93;;;3.78;;
52126;SDS011;38120;53.176;6.614;2023-09-08T13:50:37;7.72;;;5.20;;
52126;SDS011;38120;53.176;6.614;2023-09-08T13:53:03;5.63;;;3.83;;
52126;SDS011;38120;53.176;6.614;2023-09-08T13:55:29;7.68;;;4.15;;
52126;SDS011;38120;53.176;6.614;2023-09-08T13:57:54;6.63;;;3.95;;
52126;SDS011;38120;53.176;6.614;2023-09-08T14:00:20;7.40;;;4.55;;
52126;SDS011;38120;53.176;6.614;2023-09-08T14:02:46;9.25;;;4.40;;
52126;SDS011;38120;53.176;6.614;2023-09-08T14:05:12;7.03;;;3.92;;
52126;SDS011;38120;53.176;6.614;2023-09-08T14:07:38;8.18;;;4.10;;
52126;SDS011;38120;53.176;6.614;2023-09-08T14:10:03;7.30;;;4.13;;
52126;SDS011;38120;53.176;6.614;2023-09-08T14:12:36;7.60;;;4.07;;
52126;SDS011;38120;53.176;6.614;2023-09-08T14:15:02;6.90;;;3.58;;
52126;SDS011;38120;53.176;6.614;2023-09-08T14:17:29;8.27;;;3.95;;
52126;SDS011;38120;53.176;6.614;2023-09-08T14:19:55;8.88;;;3.70;;
52126;SDS011;38120;53.176;6.614;2023-09-08T14:22:20;7.35;;;3.95;;
52126;SDS011;38120;53.176;6.614;2023-09-08T14:24:46;5.97;;;3.80;;
52126;SDS011;38120;53.176;6.614;2023-09-08T14:27:12;6.10;;;4.00;;
52126;SDS011;38120;53.176;6.614;2023-09-08T14:29:37;7.78;;;4.22;;
52126;SDS011;38120;53.176;6.614;2023-09-08T14:32:03;6.47;;;3.95;;
52126;SDS011;38120;53.176;6.614;2023-09-08T14:34:29;7.28;;;3.90;;
52126;SDS011;38120;53.176;6.614;2023-09-08T14:36:55;6.22;;;3.88;;
52126;SDS011;38120;53.176;6.614;2023-09-08T14:39:20;5.72;;;3.92;;
52126;SDS011;38120;53.176;6.614;2023-09-08T14:41:46;5.93;;;3.83;;
52126;SDS011;38120;53.176;6.614;2023-09-08T14:44:13;8.13;;;4.65;;
52126;SDS011;38120;53.176;6.614;2023-09-08T14:46:38;6.57;;;3.67;;
52126;SDS011;38120;53.176;6.614;2023-09-08T14:49:04;7.55;;;3.80;;
52126;SDS011;38120;53.176;6.614;2023-09-08T14:51:30;8.25;;;3.88;;
52126;SDS011;38120;53.176;6.614;2023-09-08T14:53:55;6.63;;;4.22;;
52126;SDS011;38120;53.176;6.614;2023-09-08T14:56:24;5.47;;;4.05;;
52126;SDS011;38120;53.176;6.614;2023-09-08T14:58:50;7.78;;;4.15;;
52126;SDS011;38120;53.176;6.614;2023-09-08T15:01:16;8.13;;;4.15;;
52126;SDS011;38120;53.176;6.614;2023-09-08T15:03:42;6.00;;;4.03;;
52126;SDS011;38120;53.176;6.614;2023-09-08T15:06:08;8.82;;;4.53;;
52126;SDS011;38120;53.176;6.614;2023-09-08T15:08:34;8.30;;;4.10;;
52126;SDS011;38120;53.176;6.614;2023-09-08T15:11:00;5.38;;;3.80;;
52126;SDS011;38120;53.176;6.614;2023-09-08T15:13:26;7.50;;;5.13;;